createdAt,value
2018-05-14T00:04:38.905Z,16.20
2018-05-14T00:09:42.113Z,16.20
2018-05-14T00:14:44.641Z,16.10
2018-05-14T00:19:47.116Z,16.20
2018-05-14T00:24:49.568Z,16.20
2018-05-14T00:29:59.684Z,16.10
2018-05-14T00:35:02.220Z,16.10
2018-05-14T00:40:08.267Z,16.10
2018-05-14T00:45:10.738Z,16.10
2018-05-14T00:50:13.178Z,16.20
2018-05-14T00:55:17.385Z,16.20
2018-05-14T01:00:19.844Z,16.20
2018-05-14T01:05:23.077Z,16.20
2018-05-14T01:10:25.517Z,16.10
2018-05-14T01:15:27.974Z,16.20
2018-05-14T01:20:30.430Z,16.10
2018-05-14T01:25:32.969Z,16.10
2018-05-14T01:30:35.413Z,16.10
2018-05-14T01:35:38.638Z,16.00
2018-05-14T01:40:41.218Z,16.00
2018-05-14T01:45:44.426Z,15.90
2018-05-14T01:50:47.647Z,15.90
2018-05-14T01:55:50.097Z,15.80
2018-05-14T02:00:52.549Z,15.90
2018-05-14T02:05:55.097Z,15.90
2018-05-14T02:10:58.232Z,16.00
2018-05-14T02:16:00.681Z,15.90
2018-05-14T02:21:03.151Z,15.90
2018-05-14T02:26:06.670Z,15.80
2018-05-14T02:31:09.943Z,15.70
2018-05-14T02:36:12.429Z,15.70
2018-05-14T02:41:15.663Z,15.70
2018-05-14T02:46:18.134Z,15.70
2018-05-14T02:51:21.353Z,15.50
2018-05-14T02:56:24.571Z,15.50
2018-05-14T03:01:27.039Z,15.40
2018-05-14T03:06:29.494Z,15.40
2018-05-14T03:11:31.938Z,15.40
2018-05-14T03:16:34.391Z,15.30
2018-05-14T03:27:11.366Z,15.20
2018-05-14T03:32:14.708Z,15.20
2018-05-14T03:42:45.074Z,15.10
2018-05-14T03:48:07.694Z,15.00
2018-05-14T03:53:10.158Z,14.90
2018-05-14T03:58:24.433Z,14.90
2018-05-14T04:03:38.950Z,14.80
2018-05-14T04:08:42.332Z,14.70
2018-05-14T04:13:44.786Z,14.70
2018-05-14T04:18:47.235Z,14.80
2018-05-14T04:23:49.689Z,14.80
2018-05-14T04:29:04.755Z,14.80
2018-05-14T04:34:07.253Z,14.80
2018-05-14T04:44:37.954Z,15.00
2018-05-14T04:49:40.432Z,15.10
2018-05-14T04:54:42.958Z,15.10
2018-05-14T04:59:45.411Z,15.00
2018-05-14T05:04:47.948Z,15.10
2018-05-14T05:10:09.288Z,15.10
2018-05-14T05:15:11.754Z,15.10
2018-05-14T05:20:14.201Z,15.20
2018-05-14T05:25:17.423Z,15.20
2018-05-14T05:30:20.643Z,15.10
2018-05-14T05:35:23.091Z,15.10
2018-05-14T05:40:25.582Z,15.00
2018-05-14T05:45:28.025Z,15.00
2018-05-14T05:50:30.637Z,15.00
2018-05-14T05:55:33.137Z,15.00
2018-05-14T06:00:36.247Z,15.20
2018-05-14T06:05:38.699Z,15.40
2018-05-14T06:10:41.906Z,15.70
2018-05-14T06:15:45.158Z,16.00
2018-05-14T06:20:51.758Z,15.90
2018-05-14T06:25:54.190Z,16.30
2018-05-14T06:30:57.579Z,16.80
2018-05-14T06:36:00.037Z,16.70
2018-05-14T06:41:02.503Z,17.00
2018-05-14T06:46:05.741Z,17.40
2018-05-14T06:51:08.259Z,17.30
2018-05-14T06:56:10.724Z,17.50
2018-05-14T07:01:13.209Z,17.70
2018-05-14T07:06:15.689Z,17.90
2018-05-14T07:11:18.940Z,18.30
2018-05-14T07:16:24.357Z,18.30
2018-05-14T07:21:27.658Z,18.60
2018-05-14T07:26:30.124Z,18.60
2018-05-14T07:31:32.559Z,18.70
2018-05-14T07:36:35.098Z,18.90
2018-05-14T07:41:37.567Z,19.00
2018-05-14T07:46:40.053Z,19.30
2018-05-14T07:51:42.470Z,19.40
2018-05-14T07:56:44.920Z,19.50
2018-05-14T08:01:47.449Z,19.70
2018-05-14T08:06:49.881Z,19.80
2018-05-14T08:11:52.324Z,20.00
2018-05-14T08:16:54.841Z,20.20
2018-05-14T08:21:57.308Z,20.40
2018-05-14T08:26:59.746Z,20.60
2018-05-14T08:32:02.283Z,20.60
2018-05-14T08:37:04.800Z,20.70
2018-05-14T08:42:07.185Z,20.90
2018-05-14T08:47:09.774Z,20.90
2018-05-14T08:52:12.331Z,21.10
2018-05-14T08:57:15.529Z,21.40
2018-05-14T09:02:18.099Z,21.40
2018-05-14T09:07:44.296Z,21.50
2018-05-14T09:12:50.468Z,21.60
2018-05-14T09:17:53.673Z,22.00
2018-05-14T09:22:56.895Z,22.10
2018-05-14T09:28:00.103Z,22.20
2018-05-14T09:33:04.989Z,22.30
2018-05-14T09:38:07.444Z,22.20
2018-05-14T09:43:10.655Z,22.30
2018-05-14T09:48:15.474Z,22.40
2018-05-14T09:53:17.904Z,22.40
2018-05-14T09:58:20.415Z,22.50
2018-05-14T10:03:22.946Z,22.70
2018-05-14T10:08:25.373Z,22.80
2018-05-14T10:13:28.591Z,23.00
2018-05-14T10:18:31.770Z,23.00
2018-05-14T10:23:34.283Z,23.10
2018-05-14T10:28:36.774Z,23.20
2018-05-14T10:33:39.252Z,23.40
2018-05-14T10:38:41.699Z,23.40
2018-05-14T10:43:44.360Z,23.50
2018-05-14T10:48:47.718Z,23.70
2018-05-14T10:54:14.511Z,23.70
2018-05-14T10:59:17.155Z,23.80
2018-05-14T11:04:19.609Z,24.00
2018-05-14T11:09:22.053Z,24.10
2018-05-14T11:14:24.497Z,24.20
2018-05-14T11:19:26.943Z,24.30
2018-05-14T11:24:29.420Z,24.30
2018-05-14T11:29:31.865Z,24.40
2018-05-14T11:34:34.442Z,24.50
2018-05-14T11:39:36.901Z,24.60
2018-05-14T11:44:40.630Z,24.70
2018-05-14T11:49:43.149Z,24.80
2018-05-14T11:59:54.032Z,24.80
2018-05-14T12:04:56.474Z,25.00
2018-05-14T12:09:58.949Z,25.10
2018-05-14T12:15:01.367Z,25.20
2018-05-14T12:20:03.823Z,25.30
2018-05-14T12:25:06.291Z,25.30
2018-05-14T12:30:08.733Z,25.30
2018-05-14T12:35:11.175Z,25.30
2018-05-14T12:40:13.618Z,25.30
2018-05-14T12:50:24.972Z,25.40
2018-05-14T12:55:27.429Z,25.30
2018-05-14T13:00:29.861Z,25.50
2018-05-14T13:05:33.182Z,25.50
2018-05-14T13:10:35.609Z,25.40
2018-05-14T13:15:38.205Z,25.60
2018-05-14T13:20:40.655Z,25.50
2018-05-14T13:25:43.167Z,25.60
2018-05-14T13:30:45.711Z,25.60
2018-05-14T13:35:49.290Z,25.60
2018-05-14T13:40:51.760Z,25.60
2018-05-14T13:45:55.094Z,25.60
2018-05-14T13:50:57.592Z,25.50
2018-05-14T13:56:00.984Z,25.70
2018-05-14T14:01:03.462Z,25.60
2018-05-14T14:06:05.901Z,25.80
2018-05-14T14:11:08.352Z,25.80
2018-05-14T14:16:11.557Z,25.90
2018-05-14T14:21:14.004Z,25.80
2018-05-14T14:26:16.476Z,25.80
2018-05-14T14:31:18.922Z,25.80
2018-05-14T14:36:21.412Z,25.90
2018-05-14T14:41:23.822Z,25.80
2018-05-14T14:46:27.050Z,25.70
2018-05-14T14:51:30.252Z,25.70
2018-05-14T14:56:33.459Z,25.70
2018-05-14T15:01:36.675Z,25.80
2018-05-14T15:06:39.886Z,25.60
2018-05-14T15:11:43.227Z,25.60
2018-05-14T15:16:45.680Z,25.50
2018-05-14T15:21:48.887Z,25.60
2018-05-14T15:26:53.914Z,25.60
2018-05-14T15:31:56.610Z,25.60
2018-05-14T15:36:59.061Z,25.70
2018-05-14T15:42:01.513Z,25.60
2018-05-14T15:47:04.739Z,25.60
2018-05-14T15:52:07.171Z,25.50
2018-05-14T15:57:09.675Z,25.60
2018-05-14T16:02:12.116Z,25.60
2018-05-14T16:07:15.334Z,25.60
2018-05-14T16:12:18.702Z,25.50
2018-05-14T16:17:21.253Z,25.50
2018-05-14T16:22:23.702Z,25.50
2018-05-14T16:27:26.149Z,25.40
2018-05-14T16:32:28.593Z,25.40
2018-05-14T16:37:31.047Z,25.30
2018-05-14T16:42:33.518Z,25.30
2018-05-14T16:47:35.978Z,25.20
2018-05-14T16:52:38.427Z,25.20
2018-05-14T16:57:40.926Z,25.10
2018-05-14T17:02:43.337Z,25.00
2018-05-14T17:07:45.799Z,25.00
2018-05-14T17:12:48.702Z,24.90
2018-05-14T17:17:51.180Z,24.90
2018-05-14T17:22:53.633Z,24.90
2018-05-14T17:27:56.094Z,24.80
2018-05-14T17:32:59.683Z,24.80
2018-05-14T17:38:02.266Z,24.70
2018-05-14T17:43:05.496Z,24.60
2018-05-14T17:48:07.946Z,24.50
2018-05-14T17:53:10.409Z,24.50
2018-05-14T17:58:12.866Z,24.30
2018-05-14T18:03:15.330Z,24.20
2018-05-14T18:08:18.658Z,24.00
2018-05-14T18:13:21.878Z,23.80
2018-05-14T18:18:24.381Z,23.80
2018-05-14T18:23:26.817Z,23.70
2018-05-14T18:28:35.052Z,23.50
2018-05-14T18:33:45.239Z,23.30
2018-05-14T18:38:47.698Z,23.10
2018-05-14T18:43:50.153Z,23.20
2018-05-14T18:48:52.645Z,23.00
2018-05-14T18:53:55.146Z,22.90
2018-05-14T18:58:57.595Z,22.80
2018-05-14T19:04:00.349Z,22.60
2018-05-14T19:09:02.823Z,22.50
2018-05-14T19:14:05.273Z,22.40
2018-05-14T19:19:07.746Z,22.30
2018-05-14T19:24:10.197Z,22.20
2018-05-14T19:29:18.527Z,22.00
2018-05-14T19:34:26.598Z,21.90
2018-05-14T19:39:36.236Z,21.50
2018-05-14T19:44:38.682Z,21.50
2018-05-14T19:49:41.877Z,21.20
2018-05-14T19:54:44.356Z,21.10
2018-05-14T19:59:46.877Z,21.00
2018-05-14T20:04:49.391Z,20.80
2018-05-14T20:09:51.842Z,20.60
2018-05-14T20:14:55.103Z,20.40
2018-05-14T20:19:57.582Z,20.40
2018-05-14T20:25:00.085Z,20.30
2018-05-14T20:30:02.762Z,20.50
2018-05-14T20:35:05.972Z,20.00
2018-05-14T20:40:09.237Z,19.70
2018-05-14T20:45:11.745Z,19.60
2018-05-14T20:50:14.138Z,19.50
2018-05-14T20:55:16.626Z,19.30
2018-05-14T21:00:19.061Z,19.20
2018-05-14T21:05:22.364Z,18.80
2018-05-14T21:10:25.583Z,18.60
2018-05-14T21:15:28.866Z,18.40
2018-05-14T21:20:32.825Z,18.20
2018-05-14T21:25:35.270Z,18.20
2018-05-14T21:30:37.975Z,18.10
2018-05-14T21:35:40.518Z,17.90
2018-05-14T21:40:43.743Z,17.60
2018-05-14T21:45:46.205Z,17.50
2018-05-14T21:50:49.420Z,17.40
2018-05-14T21:55:52.699Z,17.20
2018-05-14T22:00:55.262Z,17.10
2018-05-14T22:05:58.673Z,17.00
2018-05-14T22:11:01.109Z,16.90
2018-05-14T22:16:03.622Z,16.80
2018-05-14T22:21:06.835Z,16.50
2018-05-14T22:26:10.282Z,16.30
2018-05-14T22:31:12.663Z,16.20
2018-05-14T22:36:15.186Z,16.20
2018-05-14T22:41:17.619Z,16.00
2018-05-14T22:46:20.839Z,15.60
2018-05-14T22:51:23.457Z,15.60
2018-05-14T22:56:25.928Z,15.50
2018-05-14T23:01:29.154Z,15.30
2018-05-14T23:06:31.635Z,15.20
2018-05-14T23:11:34.949Z,15.00
2018-05-14T23:16:38.162Z,14.90
2018-05-14T23:21:49.441Z,14.80
2018-05-14T23:26:52.650Z,14.70
2018-05-14T23:31:59.587Z,14.70
2018-05-14T23:37:02.065Z,14.70
2018-05-14T23:42:04.572Z,14.70
2018-05-14T23:47:07.031Z,14.60
2018-05-14T23:52:10.343Z,14.40
2018-05-14T23:57:13.597Z,14.30
